Terminal Aerodrome Forecast
Issued by NWS Cleveland, OH

Home | Current Version | Previous Version | Graphics & Text | Print | Product List | Glossary Off
Versions: 1 2 3 4 5 6 7 8 9 10 11 12 13 14 15 16 17 18 19 20 21 22

000
FTUS41 KCLE 182322
TAFCAK
TAF
KCAK 182322Z 1900/1924 27006KT P6SM OVC012
     FM190300 24005KT 4SM BR OVC009
     FM191600 22005KT P6SM OVC015
     FM191700 VRB03KT P6SM SCT250=

USA.gov is the U.S. government's official web portal to all federal, state and local government web resources and services.